Time;durP1;ratioP1;P1;durP2;ratioP2;P2;SDS_P1;SDS_P2;PMS_P1;PMS_P2;Temp;Humidity;BMP_temperature;BMP_pressure;BME280_temperature;BME280_humidity;BME280_pressure;Samples;Min_cycle;Max_cycle;Signal;HPM_P1;HPM_P2
2022/08/06 00:02:23;;;;;;;1.42;0.08;;;25.40;30.90;;;;;;5109318;28;20050;-62
2022/08/06 00:04:50;;;;;;;2.65;0.20;;;25.30;30.90;;;;;;5094377;28;20607;-62
2022/08/06 00:07:18;;;;;;;0.80;0.80;;;25.30;31.00;;;;;;5088765;28;20121;-62
2022/08/06 00:09:45;;;;;;;0.85;0.10;;;25.30;31.10;;;;;;5109215;28;20047;-62
2022/08/06 00:12:12;;;;;;;3.08;0.10;;;25.30;31.20;;;;;;5088088;28;20063;-61
2022/08/06 00:14:41;;;;;;;1.30;0.52;;;25.30;31.30;;;;;;5068142;28;20213;-62
2022/08/06 00:17:08;;;;;;;1.23;0.10;;;25.20;31.30;;;;;;5068444;28;20043;-62
2022/08/06 00:19:35;;;;;;;0.65;0.10;;;25.20;31.30;;;;;;5071580;28;20099;-60
2022/08/06 00:22:02;;;;;;;6.15;0.10;;;25.20;31.50;;;;;;5103538;28;20114;-59
2022/08/06 00:24:29;;;;;;;0.22;0.15;;;25.20;31.60;;;;;;5089405;28;20173;-59
2022/08/06 00:26:56;;;;;;;0.38;0.10;;;25.10;31.70;;;;;;5087968;28;20032;-59
2022/08/06 00:29:23;;;;;;;0.40;0.40;;;25.10;31.90;;;;;;5088091;28;20044;-60
2022/08/06 00:31:51;;;;;;;0.75;0.10;;;25.10;32.00;;;;;;5086979;28;20040;-59
2022/08/06 00:34:18;;;;;;;0.63;0.10;;;25.10;32.10;;;;;;5088900;28;20054;-59
2022/08/06 00:36:45;;;;;;;0.55;0.10;;;25.00;32.20;;;;;;5089054;28;20044;-60
2022/08/06 00:39:13;;;;;;;0.93;0.10;;;25.00;32.30;;;;;;5107345;28;20086;-59
2022/08/06 00:41:40;;;;;;;2.75;0.10;;;25.00;32.30;;;;;;5089091;28;20044;-59
2022/08/06 00:44:07;;;;;;;0.98;0.10;;;24.90;32.30;;;;;;5094633;28;20048;-59
2022/08/06 00:46:34;;;;;;;1.45;0.10;;;24.90;32.40;;;;;;5107998;28;20042;-60
2022/08/06 00:49:03;;;;;;;4.18;0.20;;;24.90;32.40;;;;;;5094627;28;20047;-60
2022/08/06 00:51:30;;;;;;;0.40;0.10;;;24.90;32.50;;;;;;5092915;28;20052;-60
2022/08/06 00:53:57;;;;;;;2.45;0.10;;;24.90;32.50;;;;;;5088209;28;20538;-60
2022/08/06 00:56:24;;;;;;;0.75;0.20;;;24.80;32.60;;;;;;5088395;28;20035;-60
2022/08/06 00:58:51;;;;;;;0.10;0.10;;;24.80;32.70;;;;;;5088012;28;20044;-60
2022/08/06 01:01:18;;;;;;;2.00;0.10;;;24.70;32.70;;;;;;5083335;28;20040;-59
2022/08/06 01:03:46;;;;;;;3.30;0.50;;;24.70;32.80;;;;;;5090787;28;20465;-61
2022/08/06 01:06:15;;;;;;;2.50;0.50;;;24.70;32.90;;;;;;5086219;28;20040;-60
2022/08/06 01:08:42;;;;;;;1.88;0.28;;;24.60;32.90;;;;;;5090007;28;20075;-60
2022/08/06 01:11:09;;;;;;;0.55;0.10;;;24.60;33.00;;;;;;5108490;28;20512;-60
2022/08/06 01:13:37;;;;;;;0.40;0.10;;;24.60;33.10;;;;;;5108385;28;20051;-59
2022/08/06 01:16:13;;;;;;;1.48;0.57;;;24.60;33.20;;;;;;5108232;28;20036;-60
2022/08/06 01:18:44;;;;;;;;;;;24.60;33.30;;;;;;5097617;28;20043;-59
2022/08/06 01:21:38;;;;;;;1.58;0.03;;;24.50;33.30;;;;;;5098162;28;19924;-58
2022/08/06 01:24:25;;;;;;;1.70;0.10;;;24.40;33.50;;;;;;5101036;28;20097;-58
2022/08/06 01:26:58;;;;;;;1.15;0.10;;;24.40;33.60;;;;;;5078814;28;20098;-58
2022/08/06 01:29:30;;;;;;;0.35;0.00;;;24.40;33.70;;;;;;5105515;28;20040;-59
2022/08/06 01:32:06;;;;;;;1.05;0.00;;;24.40;33.80;;;;;;5098790;28;20097;-59
2022/08/06 01:34:37;;;;;;;3.83;0.10;;;24.40;33.80;;;;;;5093593;28;20095;-58
2022/08/06 01:37:12;;;;;;;0.08;0.05;;;24.30;33.70;;;;;;5105883;28;20067;-58
2022/08/06 01:39:44;;;;;;;0.30;0.00;;;24.30;33.80;;;;;;5087443;28;20136;-57
2022/08/06 01:42:13;;;;;;;1.35;0.10;;;24.30;34.00;;;;;;5079578;28;20082;-58
2022/08/06 01:44:44;;;;;;;2.53;0.10;;;24.20;33.90;;;;;;5076741;28;20060;-58
2022/08/06 01:47:13;;;;;;;0.25;0.00;;;24.20;34.00;;;;;;5077066;28;20055;-58
2022/08/06 01:49:43;;;;;;;0.30;0.10;;;24.20;34.10;;;;;;5083474;28;20504;-58
2022/08/06 01:52:12;;;;;;;0.50;0.10;;;24.10;34.10;;;;;;5091443;28;20205;-59
2022/08/06 01:54:41;;;;;;;0.10;0.10;;;24.10;34.10;;;;;;5088869;28;20036;-58
2022/08/06 01:57:10;;;;;;;1.20;0.10;;;24.10;34.20;;;;;;5091502;28;20480;-58
2022/08/06 01:59:43;;;;;;;1.30;0.00;;;24.00;34.30;;;;;;5089955;28;20044;-59
2022/08/06 02:02:17;;;;;;;0.73;0.10;;;24.00;34.40;;;;;;5101462;28;20070;-58
2022/08/06 02:04:48;;;;;;;0.20;0.10;;;24.00;34.50;;;;;;5091185;28;20064;-58
2022/08/06 02:07:17;;;;;;;1.80;0.40;;;23.90;34.40;;;;;;5097193;28;20051;-59
2022/08/06 02:09:47;;;;;;;2.38;0.10;;;23.90;34.50;;;;;;5103069;28;20039;-59
2022/08/06 02:12:18;;;;;;;2.78;0.10;;;23.90;34.50;;;;;;5111558;28;20031;-57
2022/08/06 02:14:49;;;;;;;1.23;0.15;;;23.90;34.60;;;;;;5093659;28;20583;-58
2022/08/06 02:17:20;;;;;;;3.75;0.10;;;23.90;34.70;;;;;;5110929;28;20131;-58
2022/08/06 02:19:51;;;;;;;4.85;0.75;;;23.80;34.70;;;;;;5106148;28;20098;-57
2022/08/06 02:22:19;;;;;;;1.95;0.55;;;23.80;34.80;;;;;;5070305;28;20052;-55
2022/08/06 02:24:47;;;;;;;1.55;0.20;;;23.70;34.80;;;;;;5070554;28;20049;-57
2022/08/06 02:27:16;;;;;;;1.42;0.47;;;23.80;35.10;;;;;;5070635;28;20044;-57
2022/08/06 02:29:46;;;;;;;1.55;0.00;;;23.70;35.10;;;;;;5070511;28;20040;-57
2022/08/06 02:32:14;;;;;;;1.20;0.10;;;23.70;35.10;;;;;;5070719;28;20072;-58
2022/08/06 02:34:42;;;;;;;2.15;0.10;;;23.70;35.30;;;;;;5099657;28;20036;-58
2022/08/06 02:37:14;;;;;;;3.30;0.50;;;23.60;35.20;;;;;;5086733;28;20041;-58
2022/08/06 02:39:45;;;;;;;0.82;0.30;;;23.60;35.30;;;;;;5070384;28;20132;-57
2022/08/06 02:42:18;;;;;;;0.00;0.00;;;23.60;35.30;;;;;;5109172;28;20136;-59
2022/08/06 02:44:53;;;;;;;0.93;0.10;;;23.60;35.90;;;;;;5096421;28;20123;-60
2022/08/06 02:47:31;;;;;;;3.38;0.13;;;23.50;35.20;;;;;;5090627;28;20105;-59
2022/08/06 02:50:02;;;;;;;4.80;0.43;;;23.50;35.20;;;;;;5096819;28;20132;-57
2022/08/06 02:52:38;;;;;;;0.28;0.00;;;23.50;35.20;;;;;;5093952;28;20105;-59
2022/08/06 02:55:10;;;;;;;0.73;0.10;;;23.40;35.10;;;;;;5090300;28;20475;-59
2022/08/06 02:57:40;;;;;;;0.75;0.00;;;23.40;35.10;;;;;;5103313;28;20335;-58
2022/08/06 03:00:10;;;;;;;2.83;0.10;;;23.40;35.20;;;;;;5103467;28;20127;-59
2022/08/06 03:02:41;;;;;;;3.75;1.25;;;23.40;35.10;;;;;;5110841;28;20407;-58
2022/08/06 03:05:15;;;;;;;3.42;0.13;;;23.30;35.10;;;;;;5102874;28;20476;-58
2022/08/06 03:07:43;;;;;;;2.58;0.47;;;23.30;35.10;;;;;;5076195;28;20071;-58
2022/08/06 03:10:11;;;;;;;0.52;0.00;;;23.30;35.10;;;;;;5069994;28;20501;-59
2022/08/06 03:12:40;;;;;;;3.45;0.10;;;23.30;35.20;;;;;;5070007;28;20045;-54
2022/08/06 03:15:09;;;;;;;10.52;0.55;;;23.30;35.30;;;;;;5084088;28;20040;-58
2022/08/06 03:17:39;;;;;;;0.52;0.10;;;23.30;35.40;;;;;;5090921;28;20044;-58
2022/08/06 03:20:08;;;;;;;0.60;0.10;;;23.20;35.40;;;;;;5097009;28;20047;-57
2022/08/06 03:22:38;;;;;;;0.28;0.08;;;23.20;35.40;;;;;;5108755;28;20047;-57
2022/08/06 03:25:06;;;;;;;1.45;0.10;;;23.20;35.50;;;;;;5110103;28;20633;-57
2022/08/06 03:27:34;;;;;;;2.55;0.10;;;23.20;35.50;;;;;;5069779;28;20135;-58
2022/08/06 03:30:02;;;;;;;1.50;0.52;;;23.10;35.40;;;;;;5069481;28;20512;-58
2022/08/06 03:32:29;;;;;;;0.20;0.20;;;23.10;35.50;;;;;;5087738;28;20050;-57
2022/08/06 03:34:57;;;;;;;4.00;2.35;;;23.10;35.60;;;;;;5104096;27;20044;-57
2022/08/06 03:37:25;;;;;;;4.03;0.10;;;23.10;35.60;;;;;;5091506;28;20135;-57
2022/08/06 03:39:55;;;;;;;2.95;0.10;;;23.10;35.70;;;;;;5088952;28;20417;-58
2022/08/06 03:42:24;;;;;;;3.30;0.10;;;23.10;35.80;;;;;;5089373;28;20067;-56
2022/08/06 03:44:51;;;;;;;0.40;0.13;;;23.00;35.80;;;;;;5099279;28;20047;-58
2022/08/06 03:47:24;;;;;;;1.90;0.05;;;23.00;35.80;;;;;;5109742;28;20519;-55
2022/08/06 03:50:01;;;;;;;2.92;0.10;;;23.00;36.00;;;;;;5091407;28;20044;-57
2022/08/06 03:52:30;;;;;;;2.55;0.63;;;23.00;36.00;;;;;;5092314;28;20147;-57
2022/08/06 03:55:02;;;;;;;4.88;0.30;;;22.90;36.00;;;;;;5089422;28;20123;-56
2022/08/06 03:57:35;;;;;;;1.83;0.43;;;22.90;36.00;;;;;;5101301;28;20042;-56
2022/08/06 04:00:03;;;;;;;0.93;0.10;;;22.90;36.00;;;;;;5109718;28;20074;-58
2022/08/06 04:02:48;;;;;;;0.38;0.00;;;22.90;36.10;;;;;;5091764;28;20407;-57
2022/08/06 04:05:18;;;;;;;0.35;0.13;;;22.80;36.20;;;;;;5089992;28;20133;-57
2022/08/06 04:07:46;;;;;;;2.33;0.10;;;22.80;36.20;;;;;;5101902;28;20073;-57
2022/08/06 04:10:16;;;;;;;1.30;0.55;;;22.80;36.30;;;;;;5088972;28;20510;-57
2022/08/06 04:12:44;;;;;;;1.13;0.75;;;22.80;36.90;;;;;;5088758;28;20542;-57
2022/08/06 04:15:13;;;;;;;2.65;0.00;;;22.80;36.40;;;;;;5076789;28;20055;-57
2022/08/06 04:17:45;;;;;;;2.28;0.13;;;22.70;36.20;;;;;;5093021;28;20055;-56
2022/08/06 04:20:14;;;;;;;0.55;0.08;;;22.70;36.20;;;;;;5099384;28;20126;-58
2022/08/06 04:22:41;;;;;;;1.55;0.10;;;22.70;36.20;;;;;;5109153;28;20047;-59
2022/08/06 04:25:10;;;;;;;3.63;0.55;;;22.70;36.20;;;;;;5102163;28;20035;-59
2022/08/06 04:27:41;;;;;;;1.48;0.10;;;22.60;36.20;;;;;;5095889;28;20050;-58
2022/08/06 04:30:09;;;;;;;2.75;0.08;;;22.60;36.20;;;;;;5108907;28;20071;-57
2022/08/06 04:32:38;;;;;;;0.98;0.50;;;22.60;36.30;;;;;;5098196;28;20563;-58
2022/08/06 04:35:08;;;;;;;1.15;0.05;;;22.60;36.20;;;;;;5097208;28;20051;-58
2022/08/06 04:37:36;;;;;;;3.42;0.10;;;22.60;36.20;;;;;;5106820;28;20408;-58
2022/08/06 04:40:04;;;;;;;3.00;0.10;;;22.60;36.20;;;;;;5108991;28;20478;-59
2022/08/06 04:42:31;;;;;;;0.40;0.10;;;22.60;36.20;;;;;;5104849;28;20077;-59
2022/08/06 04:44:59;;;;;;;0.80;0.10;;;22.50;36.20;;;;;;5088510;28;20036;-59
2022/08/06 04:47:30;;;;;;;0.25;0.10;;;22.50;36.20;;;;;;5099593;28;20066;-58
2022/08/06 04:49:57;;;;;;;3.70;0.10;;;22.50;36.20;;;;;;5088109;28;20101;-59
2022/08/06 04:52:26;;;;;;;1.40;0.08;;;22.50;36.10;;;;;;5088781;28;20044;-58
2022/08/06 04:54:53;;;;;;;0.95;0.20;;;22.40;36.00;;;;;;5090374;28;20064;-55
2022/08/06 04:57:20;;;;;;;1.75;0.10;;;22.50;36.00;;;;;;5108659;28;20031;-57
2022/08/06 04:59:47;;;;;;;0.88;0.10;;;22.40;36.00;;;;;;5096824;28;20044;-58
2022/08/06 05:02:16;;;;;;;1.08;0.10;;;22.40;36.10;;;;;;5084684;28;20036;-58
2022/08/06 05:04:44;;;;;;;2.85;0.10;;;22.40;36.10;;;;;;5108185;28;20042;-59
2022/08/06 05:07:16;;;;;;;0.40;0.10;;;22.40;36.10;;;;;;5106434;28;20434;-59
2022/08/06 05:09:43;;;;;;;0.10;0.10;;;22.40;36.20;;;;;;5088190;28;20063;-59
2022/08/06 05:12:17;;;;;;;0.40;0.00;;;22.30;36.10;;;;;;5091358;28;20052;-59
2022/08/06 05:14:52;;;;;;;1.75;0.30;;;22.30;36.10;;;;;;5092286;28;20044;-61
2022/08/06 05:17:24;;;;;;;3.58;0.10;;;22.30;36.20;;;;;;5087828;28;20044;-57
2022/08/06 05:19:56;;;;;;;2.85;0.00;;;22.30;36.20;;;;;;5087827;28;20174;-57
2022/08/06 05:22:24;;;;;;;4.03;0.10;;;22.20;36.20;;;;;;5088127;28;20036;-58
2022/08/06 05:24:52;;;;;;;0.93;0.13;;;22.20;36.30;;;;;;5087895;28;20047;-57
2022/08/06 05:27:19;;;;;;;0.25;0.10;;;22.20;36.30;;;;;;5089008;28;20076;-57
2022/08/06 05:29:46;;;;;;;1.38;0.00;;;22.20;36.50;;;;;;5107407;28;20873;-57
2022/08/06 05:32:13;;;;;;;0.40;0.10;;;22.20;36.50;;;;;;5092008;28;20071;-57
2022/08/06 05:34:42;;;;;;;0.52;0.10;;;22.20;36.50;;;;;;5091474;28;20036;-58
2022/08/06 05:37:09;;;;;;;4.38;0.10;;;22.10;36.40;;;;;;5092902;28;20520;-59
2022/08/06 05:39:36;;;;;;;5.38;0.10;;;22.10;36.50;;;;;;5112277;28;20047;-58
2022/08/06 05:42:03;;;;;;;0.65;0.00;;;22.10;36.50;;;;;;5097537;28;20040;-58
2022/08/06 05:44:30;;;;;;;0.93;0.10;;;22.10;36.60;;;;;;5091475;28;20036;-58
2022/08/06 05:47:03;;;;;;;1.38;0.10;;;22.10;36.60;;;;;;5091940;28;20044;-58
2022/08/06 05:49:36;;;;;;;1.35;0.10;;;22.10;36.70;;;;;;5110539;28;20036;-58
2022/08/06 05:52:11;;;;;;;0.75;0.73;;;22.10;36.70;;;;;;5095330;28;20044;-57
2022/08/06 05:54:46;;;;;;;2.40;0.30;;;22.10;36.90;;;;;;5091697;28;20040;-58
2022/08/06 05:57:17;;;;;;;2.20;0.17;;;22.00;36.80;;;;;;5091808;28;20774;-57
2022/08/06 05:59:51;;;;;;;0.70;0.10;;;22.00;36.90;;;;;;5097641;28;20075;-57
2022/08/06 06:02:19;;;;;;;3.15;0.10;;;22.00;36.90;;;;;;5111931;28;20049;-56
2022/08/06 06:04:47;;;;;;;0.30;0.10;;;22.00;37.50;;;;;;5099689;28;20032;-57
2022/08/06 06:07:16;;;;;;;2.50;0.00;;;22.00;36.90;;;;;;5105285;28;20045;-55
2022/08/06 06:09:44;;;;;;;2.53;0.10;;;22.00;36.90;;;;;;5110304;28;20503;-55
2022/08/06 06:12:12;;;;;;;0.80;0.38;;;22.00;36.90;;;;;;5089914;28;20135;-58
2022/08/06 06:14:42;;;;;;;3.53;0.65;;;22.00;36.90;;;;;;5096243;28;20067;-58
2022/08/06 06:17:24;;;;;;;1.55;0.30;;;22.00;36.80;;;;;;5110224;28;20098;-57
2022/08/06 06:20:02;;;;;;;1.80;0.10;;;22.00;36.80;;;;;;5096502;28;20134;-56
2022/08/06 06:22:36;;;;;;;0.40;0.10;;;22.00;36.90;;;;;;5097858;28;20052;-54
2022/08/06 06:25:09;;;;;;;2.50;0.28;;;21.90;36.80;;;;;;5103196;28;20128;-57
2022/08/06 06:27:45;;;;;;;0.73;0.10;;;21.90;36.80;;;;;;5090634;28;20040;-58
2022/08/06 06:30:19;;;;;;;2.15;0.40;;;21.90;36.70;;;;;;5090910;28;20512;-58
2022/08/06 06:32:53;;;;;;;1.50;0.10;;;21.90;36.70;;;;;;5091013;28;20777;-58
2022/08/06 06:35:28;;;;;;;4.80;0.10;;;21.90;37.30;;;;;;5100814;28;20040;-58
2022/08/06 06:38:08;;;;;;;1.85;0.50;;;21.90;36.70;;;;;;5111083;28;20451;-59
2022/08/06 06:40:48;;;;;;;1.23;0.30;;;21.90;36.60;;;;;;5097413;28;20039;-59
2022/08/06 06:43:21;;;;;;;2.08;0.10;;;21.90;36.70;;;;;;5093818;28;20047;-58
2022/08/06 06:45:56;;;;;;;2.75;0.40;;;21.90;36.60;;;;;;5084892;28;20749;-58
2022/08/06 06:48:29;;;;;;;2.17;0.22;;;21.90;36.60;;;;;;5077969;28;20043;-58
2022/08/06 06:51:02;;;;;;;1.02;0.03;;;21.90;36.60;;;;;;5093104;28;20131;-57
2022/08/06 06:53:35;;;;;;;0.55;0.55;;;21.90;36.70;;;;;;5090269;28;20089;-58
2022/08/06 06:56:04;;;;;;;1.02;0.00;;;21.90;36.70;;;;;;5104792;28;20035;-58
2022/08/06 06:58:37;;;;;;;1.08;0.75;;;21.90;36.60;;;;;;5110378;28;20050;-58
2022/08/06 07:01:08;;;;;;;1.17;0.03;;;22.00;36.60;;;;;;5093867;28;20404;-57
2022/08/06 07:03:39;;;;;;;1.45;0.00;;;22.00;36.50;;;;;;5089404;28;20075;-57
2022/08/06 07:06:09;;;;;;;1.55;0.10;;;22.00;36.40;;;;;;5097731;28;20032;-57
2022/08/06 07:08:44;;;;;;;2.92;0.10;;;22.00;36.40;;;;;;5080824;28;20528;-57
2022/08/06 07:11:14;;;;;;;1.08;0.10;;;22.10;36.40;;;;;;5080952;28;20051;-56
2022/08/06 07:13:43;;;;;;;3.60;0.10;;;22.10;36.40;;;;;;5091668;28;20123;-56
2022/08/06 07:16:13;;;;;;;3.42;1.10;;;22.10;36.20;;;;;;5106495;28;20036;-59
2022/08/06 07:18:41;;;;;;;1.00;0.00;;;22.20;36.00;;;;;;5096930;28;20093;-56
2022/08/06 07:21:08;;;;;;;0.38;0.20;;;22.20;35.90;;;;;;5092165;28;20042;-56
2022/08/06 07:23:37;;;;;;;0.80;0.10;;;22.30;35.90;;;;;;5094782;28;20093;-55
2022/08/06 07:26:07;;;;;;;3.00;0.10;;;22.20;35.70;;;;;;5104734;28;20042;-52
2022/08/06 07:28:35;;;;;;;0.75;0.40;;;22.30;35.70;;;;;;5090052;28;20404;-57
2022/08/06 07:31:05;;;;;;;1.30;0.00;;;22.30;35.60;;;;;;5094554;28;20075;-57
2022/08/06 07:33:34;;;;;;;0.50;0.10;;;22.30;35.60;;;;;;5089933;28;20368;-56
2022/08/06 07:36:01;;;;;;;2.58;0.10;;;22.40;35.60;;;;;;5087777;28;20036;-57
2022/08/06 07:38:29;;;;;;;1.75;0.10;;;22.40;35.40;;;;;;5092696;28;20107;-57
2022/08/06 07:41:02;;;;;;;0.65;0.10;;;22.50;35.30;;;;;;5087851;28;20047;-54
2022/08/06 07:43:33;;;;;;;0.30;0.10;;;22.50;35.10;;;;;;5089074;28;20040;-57
2022/08/06 07:46:03;;;;;;;0.85;0.10;;;22.50;34.90;;;;;;5089562;28;20052;-57
2022/08/06 07:48:33;;;;;;;2.78;0.40;;;22.60;34.70;;;;;;5089656;28;20036;-57
2022/08/06 07:51:02;;;;;;;0.70;0.00;;;22.60;34.60;;;;;;5089294;28;20044;-57
2022/08/06 07:53:30;;;;;;;0.70;0.00;;;22.60;34.30;;;;;;5107385;28;20035;-59
2022/08/06 07:55:59;;;;;;;1.55;0.13;;;22.70;34.10;;;;;;5091484;28;20044;-57
2022/08/06 07:58:28;;;;;;;6.60;0.32;;;22.70;33.80;;;;;;5093836;28;20126;-58
2022/08/06 08:00:55;;;;;;;0.38;0.10;;;22.70;33.60;;;;;;5093321;28;20127;-59
2022/08/06 08:06:25;;;;;;;2.00;0.43;;;22.80;33.30;;;;;;5095978;28;20031;-57
2022/08/06 08:08:55;;;;;;;1.38;0.20;;;22.70;33.10;;;;;;5100287;28;20503;-58
2022/08/06 08:11:25;;;;;;;2.72;0.00;;;22.80;32.60;;;;;;5088984;28;20063;-59
2022/08/06 08:13:54;;;;;;;2.15;0.00;;;22.80;32.80;;;;;;5089131;28;20079;-57
2022/08/06 08:16:22;;;;;;;0.03;0.00;;;22.80;32.70;;;;;;5088991;28;20136;-60
2022/08/06 08:18:49;;;;;;;1.15;0.52;;;22.80;32.60;;;;;;5108018;28;20043;-59
2022/08/06 08:21:17;;;;;;;3.83;0.00;;;22.90;32.50;;;;;;5091327;28;20085;-60
2022/08/06 08:23:47;;;;;;;0.10;0.00;;;22.90;32.30;;;;;;5076611;28;20437;-59
2022/08/06 08:26:14;;;;;;;2.10;0.10;;;22.90;32.20;;;;;;5068771;28;20116;-59
2022/08/06 08:28:42;;;;;;;1.30;0.38;;;23.00;32.10;;;;;;5089782;28;20407;-57
2022/08/06 08:31:13;;;;;;;0.10;0.10;;;23.00;31.90;;;;;;5096701;28;20071;-58
2022/08/06 08:33:40;;;;;;;0.32;0.00;;;23.00;31.80;;;;;;5089075;28;20126;-58
2022/08/06 08:36:08;;;;;;;3.85;0.10;;;23.10;32.40;;;;;;5091345;28;20035;-59
2022/08/06 08:38:36;;;;;;;0.10;0.00;;;23.10;31.70;;;;;;5097281;28;20051;-60
2022/08/06 08:41:07;;;;;;;0.57;0.00;;;23.10;31.70;;;;;;5089145;28;20478;-58
2022/08/06 08:43:37;;;;;;;0.10;0.00;;;23.10;31.70;;;;;;5098904;28;20114;-58
2022/08/06 08:46:08;;;;;;;0.13;0.05;;;23.20;31.70;;;;;;5108890;28;20089;-58
2022/08/06 08:48:37;;;;;;;1.85;0.00;;;23.20;31.60;;;;;;5097910;28;20111;-58
2022/08/06 08:51:05;;;;;;;0.75;0.10;;;23.30;31.50;;;;;;5089707;28;20039;-58
2022/08/06 08:53:38;;;;;;;1.52;0.00;;;23.30;31.30;;;;;;5088110;28;20428;-58
2022/08/06 08:56:06;;;;;;;1.35;0.10;;;23.40;31.30;;;;;;5088591;28;20072;-57
2022/08/06 08:58:36;;;;;;;0.32;0.00;;;23.40;31.10;;;;;;5108346;28;20055;-56
2022/08/06 09:01:08;;;;;;;0.90;0.00;;;23.40;31.00;;;;;;5093995;28;20713;-56
2022/08/06 09:03:38;;;;;;;0.10;0.00;;;23.50;30.80;;;;;;5094392;28;20032;-59
2022/08/06 09:06:06;;;;;;;0.82;0.03;;;23.50;31.40;;;;;;5103989;28;20410;-57
2022/08/06 09:08:36;;;;;;;2.05;0.00;;;23.60;30.60;;;;;;5100150;28;20057;-58
2022/08/06 09:11:06;;;;;;;1.10;0.00;;;23.60;30.50;;;;;;5105155;28;20142;-59
2022/08/06 09:13:33;;;;;;;2.03;0.03;;;23.60;30.40;;;;;;5068870;28;20044;-55
2022/08/06 09:16:01;;;;;;;1.50;0.93;;;23.70;30.40;;;;;;5084148;28;20162;-55
2022/08/06 09:18:30;;;;;;;0.30;0.10;;;23.70;30.50;;;;;;5105960;28;20563;-59
2022/08/06 09:20:59;;;;;;;0.40;0.00;;;23.70;30.40;;;;;;5101952;28;20160;-60
2022/08/06 09:23:26;;;;;;;3.70;0.00;;;23.80;30.30;;;;;;5108242;28;20042;-59
2022/08/06 09:25:54;;;;;;;0.03;0.03;;;23.80;30.20;;;;;;5108675;28;20678;-59
2022/08/06 09:28:30;;;;;;;0.68;0.10;;;23.80;30.10;;;;;;5102390;28;20583;-60
2022/08/06 09:30:59;;;;;;;6.22;0.00;;;23.90;30.10;;;;;;5095546;28;20094;-60
2022/08/06 09:33:26;;;;;;;0.22;0.00;;;23.90;30.00;;;;;;5095368;28;20391;-59
2022/08/06 09:36:04;;;;;;;0.00;0.00;;;24.00;29.80;;;;;;5088189;28;20667;-59
2022/08/06 09:38:31;;;;;;;0.10;0.00;;;24.00;29.40;;;;;;5086666;28;20040;-59
2022/08/06 09:41:10;;;;;;;1.17;0.10;;;24.00;29.30;;;;;;5087694;28;20040;-59
2022/08/06 09:43:38;;;;;;;0.00;0.00;;;24.10;29.10;;;;;;5102676;28;20047;-59
2022/08/06 09:46:06;;;;;;;1.45;0.10;;;24.10;29.00;;;;;;5087990;28;20040;-59
2022/08/06 09:48:34;;;;;;;0.00;0.00;;;24.20;28.90;;;;;;5088310;28;20062;-59
2022/08/06 09:51:02;;;;;;;2.97;0.00;;;24.20;28.90;;;;;;5089074;28;20443;-58
2022/08/06 09:53:30;;;;;;;3.92;0.10;;;24.20;28.90;;;;;;5088058;28;20726;-59
2022/08/06 09:55:58;;;;;;;2.40;0.52;;;24.30;28.80;;;;;;5088029;28;20139;-58
2022/08/06 09:58:35;;;;;;;0.57;0.10;;;24.30;28.80;;;;;;5097800;28;20040;-59
2022/08/06 10:01:15;;;;;;;3.03;0.10;;;24.40;28.60;;;;;;5073896;28;20527;-59
2022/08/06 10:03:42;;;;;;;0.63;0.00;;;24.40;28.60;;;;;;5067865;28;20135;-59
2022/08/06 10:06:12;;;;;;;5.18;0.00;;;24.40;28.50;;;;;;5067139;28;20124;-59
2022/08/06 10:08:40;;;;;;;0.30;0.00;;;24.50;28.80;;;;;;5067575;28;20526;-58
2022/08/06 10:11:08;;;;;;;0.25;0.00;;;24.50;28.30;;;;;;5067666;28;20083;-59
2022/08/06 10:13:37;;;;;;;0.00;0.00;;;24.60;28.20;;;;;;5084923;28;20097;-59
2022/08/06 10:16:17;;;;;;;1.85;0.10;;;24.60;28.70;;;;;;5089189;28;20036;-58
2022/08/06 10:18:46;;;;;;;3.70;0.35;;;24.70;28.10;;;;;;5088326;28;20040;-59
2022/08/06 10:21:17;;;;;;;0.63;0.10;;;24.70;28.00;;;;;;5091038;28;20496;-60
2022/08/06 10:23:46;;;;;;;2.03;0.00;;;24.70;27.90;;;;;;5091148;28;20036;-56
2022/08/06 10:26:18;;;;;;;4.45;0.10;;;24.80;27.90;;;;;;5091152;28;20123;-56
2022/08/06 10:28:49;;;;;;;0.00;0.00;;;24.90;27.90;;;;;;5089857;28;20043;-50
2022/08/06 10:31:17;;;;;;;0.00;0.00;;;24.90;27.80;;;;;;5090963;28;20040;-47
2022/08/06 10:33:49;;;;;;;0.28;0.00;;;24.90;27.90;;;;;;5090887;28;20526;-64
2022/08/06 10:36:23;;;;;;;0.10;0.00;;;25.00;27.90;;;;;;5076368;28;20044;-62
2022/08/06 10:38:52;;;;;;;4.15;0.52;;;25.00;27.90;;;;;;5084271;28;20055;-62
2022/08/06 10:41:19;;;;;;;0.50;0.20;;;25.10;27.90;;;;;;5087996;28;20055;-69
2022/08/06 10:43:47;;;;;;;2.00;0.10;;;25.10;27.90;;;;;;5076576;28;20512;-57
2022/08/06 10:46:15;;;;;;;1.90;0.03;;;25.20;27.90;;;;;;5090626;28;20043;-60
2022/08/06 10:48:45;;;;;;;0.10;0.00;;;25.30;28.00;;;;;;5087202;28;20062;-49
2022/08/06 10:51:14;;;;;;;1.98;0.10;;;25.30;27.90;;;;;;5085011;28;20044;-50
2022/08/06 10:53:45;;;;;;;0.73;0.10;;;25.40;27.90;;;;;;5091703;28;20140;-52
2022/08/06 10:56:16;;;;;;;0.28;0.10;;;25.50;27.90;;;;;;5103816;27;20068;-52
2022/08/06 10:58:44;;;;;;;0.40;0.00;;;25.50;27.90;;;;;;5102728;28;20044;-59
2022/08/06 11:01:32;;;;;;;0.10;0.10;;;25.60;27.90;;;;;;5089356;28;20127;-58
2022/08/06 11:04:18;;;;;;;0.20;0.10;;;25.70;27.80;;;;;;5089754;28;20044;-59
2022/08/06 11:07:11;;;;;;;0.73;0.20;;;25.80;27.70;;;;;;5089716;28;20563;-60
2022/08/06 11:10:03;;;;;;;3.22;0.10;;;25.90;27.70;;;;;;5032250;28;20037;-55
2022/08/06 11:12:47;;;;;;;1.25;0.10;;;26.00;27.80;;;;;;5046228;28;20461;-55
2022/08/06 11:15:15;;;;;;;0.10;0.10;;;26.10;27.70;;;;;;5042121;28;20454;-55
2022/08/06 11:17:43;;;;;;;1.55;0.10;;;26.10;27.60;;;;;;5046531;28;20150;-58
2022/08/06 11:20:40;;;;;;;0.10;0.00;;;26.20;27.60;;;;;;5050576;28;20049;-54
2022/08/06 11:23:22;;;;;;;;;;;26.30;27.50;;;;;;5056370;28;20048;-52
2022/08/06 11:25:52;;;;;;;0.50;0.20;;;26.30;27.60;;;;;;5049486;28;19925;-55
2022/08/06 11:28:21;;;;;;;0.10;0.10;;;26.40;27.50;;;;;;5053448;28;20200;-55
2022/08/06 11:30:50;;;;;;;0.40;0.40;;;26.50;27.40;;;;;;5057938;28;20051;-50
2022/08/06 11:33:20;;;;;;;3.03;0.10;;;26.60;27.40;;;;;;5037472;28;20247;-51
2022/08/06 11:35:49;;;;;;;2.42;0.10;;;26.60;27.30;;;;;;5054567;28;20524;-52
2022/08/06 11:38:36;;;;;;;0.20;0.10;;;26.70;27.20;;;;;;5022389;28;20044;-53
2022/08/06 11:41:10;;;;;;;0.10;0.10;;;26.80;27.10;;;;;;5046472;28;20120;-51
2022/08/06 11:43:48;;;;;;;0.95;0.10;;;26.90;27.10;;;;;;5046752;28;20102;-67
2022/08/06 11:46:20;;;;;;;0.60;0.20;;;27.00;27.00;;;;;;5024314;28;20070;-59
2022/08/06 11:49:16;;;;;;;0.47;0.20;;;27.00;26.90;;;;;;5088788;28;20130;-63
2022/08/06 11:51:44;;;;;;;0.68;0.10;;;27.10;26.90;;;;;;5090185;28;20069;-63
2022/08/06 11:54:13;;;;;;;0.13;0.10;;;27.20;26.80;;;;;;5089303;28;20523;-64
2022/08/06 11:57:17;;;;;;;3.97;0.75;;;27.30;26.70;;;;;;5094498;28;20076;-61
2022/08/06 12:00:17;;;;;;;0.25;0.10;;;27.30;26.50;;;;;;5086976;28;20067;-59
2022/08/06 12:02:56;;;;;;;2.00;0.10;;;27.40;26.60;;;;;;5087324;28;20040;-68
2022/08/06 12:05:47;;;;;;;9.43;0.40;;;27.50;26.50;;;;;;5091212;28;20823;-67
2022/08/06 12:08:26;;;;;;;0.43;0.10;;;27.60;26.60;;;;;;5072347;28;20052;-66
2022/08/06 12:11:22;;;;;;;5.57;0.10;;;27.60;26.80;;;;;;5095767;28;20032;-67
2022/08/06 12:13:49;;;;;;;0.10;0.10;;;27.70;27.00;;;;;;5092030;28;20129;-68
2022/08/06 12:16:39;;;;;;;1.08;0.10;;;27.70;27.10;;;;;;5089324;28;20051;-67
2022/08/06 12:19:14;;;;;;;0.10;0.10;;;27.80;26.90;;;;;;5090078;28;20818;-67
2022/08/06 12:21:44;;;;;;;6.57;0.45;;;27.80;26.90;;;;;;5086099;28;20075;-69
2022/08/06 12:24:15;;;;;;;0.40;0.10;;;27.90;27.00;;;;;;5073544;28;20128;-67
2022/08/06 12:26:44;;;;;;;0.22;0.10;;;28.00;26.90;;;;;;5089941;28;20044;-67
2022/08/06 12:29:11;;;;;;;2.22;0.10;;;28.00;27.20;;;;;;5079877;28;20042;-67
2022/08/06 12:31:40;;;;;;;0.25;0.25;;;28.00;27.10;;;;;;5085375;28;20044;-67
2022/08/06 12:34:08;;;;;;;2.38;0.47;;;28.10;27.10;;;;;;5072864;28;20124;-68
2022/08/06 12:36:37;;;;;;;0.40;0.40;;;28.10;27.10;;;;;;5089404;28;20043;-68
2022/08/06 12:39:07;;;;;;;0.10;0.10;;;28.20;27.10;;;;;;5089166;28;20753;-67
2022/08/06 12:41:36;;;;;;;0.40;0.00;;;28.20;27.10;;;;;;5089196;28;20040;-65
2022/08/06 12:44:04;;;;;;;0.80;0.10;;;28.30;27.20;;;;;;5089190;28;20044;-67
2022/08/06 12:46:31;;;;;;;0.10;0.10;;;28.40;27.10;;;;;;5089575;28;20044;-67
2022/08/06 12:48:59;;;;;;;0.38;0.10;;;28.40;27.10;;;;;;5089287;28;20047;-67
2022/08/06 12:51:28;;;;;;;0.55;0.08;;;28.50;27.00;;;;;;5088922;28;20044;-67
2022/08/06 12:53:58;;;;;;;0.73;0.32;;;28.50;27.40;;;;;;5088636;28;20047;-67
2022/08/06 12:56:26;;;;;;;0.10;0.10;;;28.60;26.90;;;;;;5089586;28;20044;-67
2022/08/06 12:58:54;;;;;;;1.75;0.10;;;28.60;26.80;;;;;;5079287;28;20052;-67
2022/08/06 13:01:24;;;;;;;0.10;0.10;;;28.60;26.70;;;;;;5088901;28;20135;-66
2022/08/06 13:03:55;;;;;;;0.52;0.10;;;28.70;26.70;;;;;;5089320;28;20062;-66
2022/08/06 13:06:25;;;;;;;0.15;0.15;;;28.70;26.60;;;;;;5089619;28;20048;-68
2022/08/06 13:08:54;;;;;;;0.65;0.08;;;28.80;26.60;;;;;;5088657;28;20466;-66
2022/08/06 13:11:29;;;;;;;0.10;0.10;;;28.80;26.50;;;;;;5089300;28;20055;-67